createdAt,value
2016-07-30T00:01:01.065Z,1005.34
2016-07-30T00:04:14.708Z,1005.38
2016-07-30T00:07:28.351Z,1005.38
2016-07-30T00:10:41.922Z,1005.36
2016-07-30T00:13:55.584Z,1005.32
2016-07-30T00:17:13.626Z,1005.34
2016-07-30T00:20:17.840Z,1005.36
2016-07-30T00:23:32.327Z,1005.32
2016-07-30T00:26:46.281Z,1005.24
2016-07-30T00:30:00.096Z,1005.24
2016-07-30T00:33:13.917Z,1005.28
2016-07-30T00:36:27.372Z,1005.3
2016-07-30T00:39:40.293Z,1005.2
2016-07-30T00:42:53.975Z,1005.16
2016-07-30T00:46:11.446Z,1005.34
2016-07-30T00:49:16.697Z,1005.24
2016-07-30T00:52:30.469Z,1005.3
2016-07-30T00:55:44.208Z,1005.24
2016-07-30T00:58:58.099Z,1005.36
2016-07-30T01:02:11.290Z,1005.32
2016-07-30T01:05:24.910Z,1005.26
2016-07-30T01:08:38.703Z,1005.3
2016-07-30T01:11:52.150Z,1005.36
2016-07-30T01:15:09.887Z,1005.38
2016-07-30T01:18:15.209Z,1005.42
2016-07-30T01:21:28.658Z,1005.42
2016-07-30T01:24:42.681Z,1005.4
2016-07-30T01:27:56.584Z,1005.4
2016-07-30T01:31:14.063Z,1005.34
2016-07-30T01:34:19.403Z,1005.42
2016-07-30T01:37:33.028Z,1005.38
2016-07-30T01:40:46.643Z,1005.38
2016-07-30T01:44:00.319Z,1005.48
2016-07-30T01:47:13.839Z,1005.28
2016-07-30T01:50:27.237Z,1005.32
2016-07-30T01:53:40.561Z,1005.42
2016-07-30T01:56:54.370Z,1005.32
2016-07-30T02:00:11.801Z,1005.32
2016-07-30T02:03:17.345Z,1005.28
2016-07-30T02:06:30.848Z,1005.26
2016-07-30T02:09:44.403Z,1005.28
2016-07-30T02:12:58.407Z,1005.26
2016-07-30T02:16:12.022Z,1005.28
2016-07-30T02:19:25.645Z,1005.22
2016-07-30T02:22:39.172Z,1005.16
2016-07-30T02:25:52.806Z,1005.22
2016-07-30T02:29:10.325Z,1005.14
2016-07-30T02:32:15.846Z,1005
2016-07-30T02:35:29.588Z,1005.04
2016-07-30T02:38:43.464Z,1004.88
2016-07-30T02:41:57.303Z,1004.9
2016-07-30T02:45:11.321Z,1004.88
2016-07-30T02:48:24.941Z,1004.94
2016-07-30T02:51:38.745Z,1004.92
2016-07-30T02:54:52.346Z,1005
2016-07-30T02:58:10.062Z,1005.08
2016-07-30T03:01:15.512Z,1005.12
2016-07-30T03:04:29.041Z,1005.08
2016-07-30T03:07:42.664Z,1005.1
2016-07-30T03:10:56.205Z,1005.02
2016-07-30T03:14:13.772Z,1005
2016-07-30T03:17:19.251Z,1005.1
2016-07-30T03:20:33.024Z,1005.04
2016-07-30T03:23:46.843Z,1005.08
2016-07-30T03:27:01.002Z,1005.02
2016-07-30T03:30:14.289Z,1005
2016-07-30T03:33:28.165Z,1005.02
2016-07-30T03:36:41.652Z,1005.1
2016-07-30T03:39:55.597Z,1005.04
2016-07-30T03:43:13.280Z,1005.14
2016-07-30T03:46:18.709Z,1005.2
2016-07-30T03:49:32.624Z,1005.18
2016-07-30T03:52:46.412Z,1005.12
2016-07-30T03:56:00.276Z,1005.18
2016-07-30T03:59:13.808Z,1005.26
2016-07-30T04:02:27.701Z,1005.18
2016-07-30T04:05:41.601Z,1005.3
2016-07-30T04:08:55.110Z,1005.38
2016-07-30T04:12:12.880Z,1005.28
2016-07-30T04:15:18.276Z,1005.38
2016-07-30T04:18:31.702Z,1005.4
2016-07-30T04:21:45.246Z,1005.46
2016-07-30T04:24:58.721Z,1005.48
2016-07-30T04:28:12.245Z,1005.48
2016-07-30T04:31:25.801Z,1005.42
2016-07-30T04:34:39.648Z,1005.48
2016-07-30T04:37:53.135Z,1005.46
2016-07-30T04:41:11.078Z,1005.38
2016-07-30T04:44:16.500Z,1005.34
2016-07-30T04:47:30.257Z,1005.44
2016-07-30T04:50:43.937Z,1005.38
2016-07-30T04:53:57.899Z,1005.44
2016-07-30T04:57:11.965Z,1005.48
2016-07-30T05:00:25.764Z,1005.44
2016-07-30T05:03:39.377Z,1005.44
2016-07-30T05:06:52.965Z,1005.44
2016-07-30T05:10:10.645Z,1005.5
2016-07-30T05:13:16.083Z,1005.54
2016-07-30T05:16:29.834Z,1005.56
2016-07-30T05:19:43.497Z,1005.62
2016-07-30T05:22:57.354Z,1005.48
2016-07-30T05:26:15.239Z,1005.54
2016-07-30T05:29:20.589Z,1005.6
2016-07-30T05:32:34.263Z,1005.68
2016-07-30T05:35:48.079Z,1005.64
2016-07-30T05:39:05.519Z,1005.8
2016-07-30T05:42:14.971Z,1005.8
2016-07-30T05:45:20.415Z,1005.78
2016-07-30T05:48:34.195Z,1005.82
2016-07-30T05:51:48.067Z,1005.82
2016-07-30T05:55:06.137Z,1005.78
2016-07-30T05:58:11.690Z,1005.74
2016-07-30T06:01:25.720Z,1005.82
2016-07-30T06:04:39.757Z,1005.86
2016-07-30T06:07:53.742Z,1005.76
2016-07-30T06:11:11.426Z,1005.68
2016-07-30T06:14:17.146Z,1005.76
2016-07-30T06:17:31.267Z,1005.7
2016-07-30T06:20:45.504Z,1005.74
2016-07-30T06:23:59.609Z,1005.74
2016-07-30T06:27:13.967Z,1005.74
2016-07-30T06:30:28.044Z,1005.74
2016-07-30T06:33:42.304Z,1005.76
2016-07-30T06:36:56.475Z,1005.78
2016-07-30T06:40:14.602Z,1005.7
2016-07-30T06:43:20.654Z,1005.72
2016-07-30T06:46:35.021Z,1005.74
2016-07-30T06:49:49.210Z,1005.7
2016-07-30T06:53:07.672Z,1005.82
2016-07-30T06:56:13.655Z,1005.8
2016-07-30T06:59:27.924Z,1005.86
2016-07-30T07:02:42.383Z,1005.7
2016-07-30T07:05:56.546Z,1005.72
2016-07-30T07:09:14.769Z,1005.74
2016-07-30T07:12:20.902Z,1005.7
2016-07-30T07:15:35.530Z,1005.76
2016-07-30T07:18:49.432Z,1005.72
2016-07-30T07:22:07.533Z,1005.72
2016-07-30T07:25:13.720Z,1005.76
2016-07-30T07:28:28.235Z,1005.72
2016-07-30T07:31:42.375Z,1005.74
2016-07-30T07:34:56.778Z,1005.86
2016-07-30T07:38:15.022Z,1005.74
2016-07-30T07:41:21.009Z,1005.78
2016-07-30T07:44:35.090Z,1005.92
2016-07-30T07:47:49.192Z,1005.82
2016-07-30T07:51:07.308Z,1005.88
2016-07-30T07:54:13.047Z,1005.94
2016-07-30T07:57:27.148Z,1005.96
2016-07-30T08:00:41.553Z,1005.98
2016-07-30T08:03:55.049Z,1006.02
2016-07-30T08:07:13.118Z,1006.02
2016-07-30T08:10:19.030Z,1006.1
2016-07-30T08:13:33.294Z,1005.92
2016-07-30T08:16:47.721Z,1006.02
2016-07-30T08:20:06.332Z,1005.86
2016-07-30T08:23:12.624Z,1005.8
2016-07-30T08:26:27.531Z,1005.78
2016-07-30T08:29:42.213Z,1005.82
2016-07-30T08:32:56.919Z,1005.86
2016-07-30T08:36:15.249Z,1006.02
2016-07-30T08:39:21.157Z,1005.92
2016-07-30T08:42:35.336Z,1005.88
2016-07-30T08:45:49.929Z,1005.82
2016-07-30T08:49:08.232Z,1005.82
2016-07-30T08:52:14.657Z,1005.88
2016-07-30T08:55:29.158Z,1005.72
2016-07-30T08:58:43.551Z,1005.8
2016-07-30T09:01:58.056Z,1005.74
2016-07-30T09:05:12.396Z,1005.9
2016-07-30T09:08:26.595Z,1005.82
2016-07-30T09:11:40.886Z,1005.88
2016-07-30T09:14:54.422Z,1005.92
2016-07-30T09:18:12.665Z,1005.96
2016-07-30T09:21:18.624Z,1005.94
2016-07-30T09:24:33.000Z,1006
2016-07-30T09:27:47.197Z,1006.04
2016-07-30T09:31:01.399Z,1005.98
2016-07-30T09:34:15.765Z,1006.04
2016-07-30T09:37:30.103Z,1006.04
2016-07-30T09:40:44.068Z,1005.9
2016-07-30T09:43:58.312Z,1006.1
2016-07-30T09:47:12.596Z,1005.98
2016-07-30T09:50:26.938Z,1005.94
2016-07-30T09:53:39.929Z,1005.8
2016-07-30T09:56:55.111Z,1005.86
2016-07-30T10:00:14.142Z,1006.06
2016-07-30T10:03:19.122Z,1006.06
2016-07-30T10:06:33.271Z,1006.06
2016-07-30T10:09:47.469Z,1005.92
2016-07-30T10:13:05.715Z,1005.9
2016-07-30T10:16:11.641Z,1005.76
2016-07-30T10:19:25.851Z,1005.76
2016-07-30T10:22:39.867Z,1005.92
2016-07-30T10:25:53.976Z,1005.9
2016-07-30T10:29:11.867Z,1005.86
2016-07-30T10:32:17.661Z,1005.94
2016-07-30T10:35:31.572Z,1005.88
2016-07-30T10:38:45.921Z,1005.82
2016-07-30T10:42:00.120Z,1005.82
2016-07-30T10:45:14.604Z,1005.76
2016-07-30T10:48:28.818Z,1005.66
2016-07-30T10:51:43.246Z,1005.8
2016-07-30T10:54:57.818Z,1005.76
2016-07-30T10:58:12.441Z,1005.78
2016-07-30T11:01:27.086Z,1005.76
2016-07-30T11:04:41.218Z,1005.88
2016-07-30T11:07:55.621Z,1005.98
2016-07-30T11:11:13.753Z,1005.94
2016-07-30T11:14:19.696Z,1005.9
2016-07-30T11:17:33.562Z,1005.9
2016-07-30T11:20:47.804Z,1005.88
2016-07-30T11:24:06.091Z,1005.8
2016-07-30T11:27:12.131Z,1005.82
2016-07-30T11:30:26.500Z,1005.92
2016-07-30T11:33:40.507Z,1005.82
2016-07-30T11:36:54.784Z,1005.86
2016-07-30T11:40:13.035Z,1005.86
2016-07-30T11:43:19.150Z,1005.98
2016-07-30T11:46:33.512Z,1005.8
2016-07-30T11:49:47.632Z,1005.74
2016-07-30T11:53:01.418Z,1005.82
2016-07-30T11:56:15.526Z,1005.78
2016-07-30T11:59:29.971Z,1005.78
2016-07-30T12:02:44.045Z,1005.78
2016-07-30T12:05:58.654Z,1005.86
2016-07-30T12:09:15.047Z,1005.74
2016-07-30T12:12:21.092Z,1005.78
2016-07-30T12:15:35.139Z,1005.74
2016-07-30T12:18:49.192Z,1005.72
2016-07-30T12:22:07.310Z,1005.7
2016-07-30T12:25:13.391Z,1005.68
2016-07-30T12:28:27.524Z,1005.66
2016-07-30T12:31:41.828Z,1005.46
2016-07-30T12:34:56.029Z,1005.52
2016-07-30T12:38:13.948Z,1005.5
2016-07-30T12:41:19.943Z,1005.52
2016-07-30T12:44:34.085Z,1005.54
2016-07-30T12:47:48.482Z,1005.52
2016-07-30T12:51:06.480Z,1005.44
2016-07-30T12:54:12.396Z,1005.32
2016-07-30T12:57:26.306Z,1005.48
2016-07-30T13:00:40.745Z,1005.3
2016-07-30T13:03:55.133Z,1005.36
2016-07-30T13:07:12.829Z,1005.3
2016-07-30T13:10:18.652Z,1005.28
2016-07-30T13:13:33.092Z,1005.28
2016-07-30T13:16:47.255Z,1005.34
2016-07-30T13:20:05.626Z,1005.18
2016-07-30T13:23:11.520Z,1005.18
2016-07-30T13:26:25.694Z,1005.24
2016-07-30T13:29:39.405Z,1005.18
2016-07-30T13:32:53.567Z,1005.14
2016-07-30T13:36:11.732Z,1005.24
2016-07-30T13:39:17.746Z,1005.08
2016-07-30T13:42:31.749Z,1005.12
2016-07-30T13:45:46.153Z,1005.06
2016-07-30T13:49:00.063Z,1004.94
2016-07-30T13:52:14.160Z,1005
2016-07-30T13:55:28.695Z,1005
2016-07-30T13:58:42.962Z,1005.08
2016-07-30T14:01:57.370Z,1005.06
2016-07-30T14:05:11.743Z,1005.02
2016-07-30T14:08:25.909Z,1005.04
2016-07-30T14:11:40.077Z,1005.04
2016-07-30T14:14:53.725Z,1005.08
2016-07-30T14:18:10.534Z,1004.94
2016-07-30T14:21:16.499Z,1005
2016-07-30T14:24:30.724Z,1004.94
2016-07-30T14:27:44.843Z,1005
2016-07-30T14:30:58.858Z,1004.94
2016-07-30T14:34:12.989Z,1004.96
2016-07-30T14:37:27.199Z,1005.06
2016-07-30T14:40:41.183Z,1005.06
2016-07-30T14:43:55.297Z,1005.12
2016-07-30T14:47:13.395Z,1005.12
2016-07-30T14:50:19.373Z,1005.04
2016-07-30T14:53:33.620Z,1005.12
2016-07-30T14:56:47.935Z,1005.12
2016-07-30T15:00:05.881Z,1005.06
2016-07-30T15:03:11.886Z,1005.1
2016-07-30T15:06:25.962Z,1005.16
2016-07-30T15:09:40.045Z,1005.14
2016-07-30T15:12:54.547Z,1005.06
2016-07-30T15:16:13.065Z,1005.18
2016-07-30T15:19:18.948Z,1005.22
2016-07-30T15:22:33.002Z,1005.14
2016-07-30T15:25:47.392Z,1005.12
2016-07-30T15:29:05.721Z,1005.14
2016-07-30T15:32:11.669Z,1005.18
2016-07-30T15:35:25.692Z,1005.18
2016-07-30T15:38:39.518Z,1005.22
2016-07-30T15:41:54.000Z,1005.32
2016-07-30T15:45:12.290Z,1005.26
2016-07-30T15:48:18.088Z,1005.16
2016-07-30T15:51:32.242Z,1005.18
2016-07-30T15:54:46.385Z,1005.32
2016-07-30T15:58:00.566Z,1005.28
2016-07-30T16:01:14.649Z,1005.3
2016-07-30T16:04:28.889Z,1005.22
2016-07-30T16:07:43.101Z,1005.18
2016-07-30T16:10:57.294Z,1005.16
2016-07-30T16:14:11.568Z,1005.34
2016-07-30T16:17:25.660Z,1005.26
2016-07-30T16:20:39.449Z,1005.26
2016-07-30T16:23:52.656Z,1005.22
2016-07-30T16:27:10.457Z,1005.18
2016-07-30T16:30:16.475Z,1005.22
2016-07-30T16:33:29.757Z,1005.18
2016-07-30T16:36:43.726Z,1005.2
2016-07-30T16:39:57.942Z,1005.24
2016-07-30T16:43:12.483Z,1005.22
2016-07-30T16:46:26.826Z,1005.26
2016-07-30T16:49:41.322Z,1005.28
2016-07-30T16:52:56.027Z,1005.26
2016-07-30T16:56:14.224Z,1005.34
2016-07-30T16:59:19.926Z,1005.32
2016-07-30T17:02:34.555Z,1005.2
2016-07-30T17:05:49.068Z,1005.14
2016-07-30T17:09:07.525Z,1005.14
2016-07-30T17:12:13.292Z,1005.18
2016-07-30T17:15:27.735Z,1005.1
2016-07-30T17:18:42.233Z,1005.16
2016-07-30T17:21:56.333Z,1005.2
2016-07-30T17:25:14.493Z,1005.22
2016-07-30T17:28:20.287Z,1005.22
2016-07-30T17:31:34.529Z,1005.26
2016-07-30T17:34:48.738Z,1005.26
2016-07-30T17:38:07.135Z,1005.24
2016-07-30T17:44:27.456Z,1005.3
2016-07-30T17:47:42.169Z,1005.36
2016-07-30T17:50:56.540Z,1005.26
2016-07-30T17:54:14.829Z,1005.38
2016-07-30T17:57:20.823Z,1005.46
2016-07-30T18:00:35.243Z,1005.52
2016-07-30T18:03:49.470Z,1005.52
2016-07-30T18:07:07.951Z,1005.54
2016-07-30T18:10:13.727Z,1005.54
2016-07-30T18:13:27.778Z,1005.58
2016-07-30T18:16:42.105Z,1005.62
2016-07-30T18:19:56.216Z,1005.64
2016-07-30T18:23:14.512Z,1005.58
2016-07-30T18:26:20.326Z,1005.52
2016-07-30T18:29:34.675Z,1005.54
2016-07-30T18:32:49.202Z,1005.58
2016-07-30T18:36:07.733Z,1005.52
2016-07-30T18:39:13.556Z,1005.48
2016-07-30T18:42:27.866Z,1005.52
2016-07-30T18:45:42.521Z,1005.58
2016-07-30T18:48:56.859Z,1005.6
2016-07-30T18:52:15.004Z,1005.68
2016-07-30T18:55:20.865Z,1005.54
2016-07-30T18:58:35.268Z,1005.52
2016-07-30T19:01:49.827Z,1005.62
2016-07-30T19:05:08.235Z,1005.56
2016-07-30T19:08:14.184Z,1005.64
2016-07-30T19:14:43.140Z,1005.74
2016-07-30T19:17:56.375Z,1005.78
2016-07-30T19:21:14.383Z,1005.74
2016-07-30T19:24:20.142Z,1005.78
2016-07-30T19:27:34.618Z,1005.82
2016-07-30T19:30:49.215Z,1005.9
2016-07-30T19:34:07.682Z,1006
2016-07-30T19:37:13.474Z,1006.1
2016-07-30T19:40:27.858Z,1005.94
2016-07-30T19:43:41.855Z,1006.04
2016-07-30T19:46:56.384Z,1006.06
2016-07-30T19:50:14.757Z,1006.1
2016-07-30T19:53:20.617Z,1006.18
2016-07-30T19:56:34.891Z,1006.18
2016-07-30T19:59:49.304Z,1006.24
2016-07-30T20:03:07.788Z,1006.34
2016-07-30T20:06:13.579Z,1006.3
2016-07-30T20:09:27.941Z,1006.34
2016-07-30T20:12:42.453Z,1006.4
2016-07-30T20:15:57.033Z,1006.36
2016-07-30T20:19:15.237Z,1006.34
2016-07-30T20:22:20.862Z,1006.36
2016-07-30T20:25:35.272Z,1006.46
2016-07-30T20:28:49.422Z,1006.5
2016-07-30T20:32:05.907Z,1006.52
2016-07-30T20:35:15.479Z,1006.57
2016-07-30T20:38:21.264Z,1006.48
2016-07-30T20:41:35.594Z,1006.5
2016-07-30T20:44:49.821Z,1006.52
2016-07-30T20:48:08.178Z,1006.52
2016-07-30T20:51:13.959Z,1006.57
2016-07-30T20:54:28.052Z,1006.55
2016-07-30T20:57:42.244Z,1006.55
2016-07-30T21:00:56.604Z,1006.55
2016-07-30T21:04:14.651Z,1006.52
2016-07-30T21:07:20.413Z,1006.61
2016-07-30T21:10:34.775Z,1006.65
2016-07-30T21:13:49.218Z,1006.71
2016-07-30T21:17:07.779Z,1006.57
2016-07-30T21:20:13.384Z,1006.65
2016-07-30T21:23:27.628Z,1006.61
2016-07-30T21:26:42.040Z,1006.59
2016-07-30T21:29:56.444Z,1006.67
2016-07-30T21:33:14.811Z,1006.69
2016-07-30T21:36:20.569Z,1006.59
2016-07-30T21:39:34.862Z,1006.61
2016-07-30T21:42:49.240Z,1006.61
2016-07-30T21:46:07.690Z,1006.59
2016-07-30T21:49:13.081Z,1006.57
2016-07-30T21:52:26.373Z,1006.46
2016-07-30T21:55:41.760Z,1006.42
2016-07-30T21:58:55.987Z,1006.4
2016-07-30T22:02:14.269Z,1006.38
2016-07-30T22:05:19.958Z,1006.4
2016-07-30T22:08:34.196Z,1006.38
2016-07-30T22:11:48.500Z,1006.4
2016-07-30T22:15:06.664Z,1006.42
2016-07-30T22:18:12.269Z,1006.28
2016-07-30T22:21:26.039Z,1006.38
2016-07-30T22:24:40.307Z,1006.38
2016-07-30T22:27:54.615Z,1006.42
2016-07-30T22:31:12.660Z,1006.44
2016-07-30T22:34:18.296Z,1006.42
2016-07-30T22:37:32.450Z,1006.5
2016-07-30T22:40:46.453Z,1006.55
2016-07-30T22:44:00.619Z,1006.48
2016-07-30T22:47:14.717Z,1006.48
2016-07-30T22:50:29.103Z,1006.59
2016-07-30T22:53:43.420Z,1006.5
2016-07-30T22:56:57.820Z,1006.59
2016-07-30T23:00:15.300Z,1006.69
2016-07-30T23:03:20.803Z,1006.61
2016-07-30T23:06:35.025Z,1006.69
2016-07-30T23:09:49.382Z,1006.54
2016-07-30T23:13:07.570Z,1006.57
2016-07-30T23:16:13.061Z,1006.61
2016-07-30T23:19:27.318Z,1006.63
2016-07-30T23:22:41.665Z,1006.63
2016-07-30T23:25:56.101Z,1006.67
2016-07-30T23:29:14.246Z,1006.63
2016-07-30T23:32:19.697Z,1006.61
2016-07-30T23:35:34.070Z,1006.57
2016-07-30T23:38:48.246Z,1006.54
2016-07-30T23:42:06.510Z,1006.63
2016-07-30T23:45:12.143Z,1006.4
2016-07-30T23:48:26.367Z,1006.52
2016-07-30T23:51:40.653Z,1006.54
2016-07-30T23:54:54.689Z,1006.48
2016-07-30T23:58:13.113Z,1006.57
